sensor_id;sensor_type;location;lat;lon;timestamp;temperature;humidity
51500;DHT22;39101;53.478;6.158;2022-10-04T00:00:42;12.70;99.90
51500;DHT22;39101;53.478;6.158;2022-10-04T00:03:33;12.70;99.90
51500;DHT22;39101;53.478;6.158;2022-10-04T00:06:01;12.70;99.90
51500;DHT22;39101;53.478;6.158;2022-10-04T00:11:19;12.70;99.90
51500;DHT22;39101;53.478;6.158;2022-10-04T00:13:54;12.70;99.90
51500;DHT22;39101;53.478;6.158;2022-10-04T00:16:51;12.70;99.90
51500;DHT22;39101;53.478;6.158;2022-10-04T00:24:26;12.70;99.90
51500;DHT22;39101;53.478;6.158;2022-10-04T00:27:20;12.70;99.90
51500;DHT22;39101;53.478;6.158;2022-10-04T00:30:19;12.70;99.90
51500;DHT22;39101;53.478;6.158;2022-10-04T00:33:00;12.70;99.90
51500;DHT22;39101;53.478;6.158;2022-10-04T00:38:15;12.70;99.90
51500;DHT22;39101;53.478;6.158;2022-10-04T00:40:57;12.70;99.90
51500;DHT22;39101;53.478;6.158;2022-10-04T00:43:39;12.70;99.90
51500;DHT22;39101;53.478;6.158;2022-10-04T00:46:14;12.70;99.90
51500;DHT22;39101;53.478;6.158;2022-10-04T00:48:48;12.70;99.90
51500;DHT22;39101;53.478;6.158;2022-10-04T00:59:43;12.70;99.90
51500;DHT22;39101;53.478;6.158;2022-10-04T01:02:17;12.70;99.90
51500;DHT22;39101;53.478;6.158;2022-10-04T01:10:17;12.80;99.90
51500;DHT22;39101;53.478;6.158;2022-10-04T01:18:27;12.80;99.90
51500;DHT22;39101;53.478;6.158;2022-10-04T01:23:46;12.70;99.90
51500;DHT22;39101;53.478;6.158;2022-10-04T01:26:36;12.80;99.90
51500;DHT22;39101;53.478;6.158;2022-10-04T01:29:23;12.70;99.90
51500;DHT22;39101;53.478;6.158;2022-10-04T01:31:51;12.70;99.90
51500;DHT22;39101;53.478;6.158;2022-10-04T01:34:23;12.70;99.90
51500;DHT22;39101;53.478;6.158;2022-10-04T01:36:52;12.70;99.90
51500;DHT22;39101;53.478;6.158;2022-10-04T01:39:21;12.70;99.90
51500;DHT22;39101;53.478;6.158;2022-10-04T01:47:00;12.80;99.90
51500;DHT22;39101;53.478;6.158;2022-10-04T01:49:30;12.80;99.90
51500;DHT22;39101;53.478;6.158;2022-10-04T01:52:04;12.70;99.90
51500;DHT22;39101;53.478;6.158;2022-10-04T01:55:00;12.80;99.90
51500;DHT22;39101;53.478;6.158;2022-10-04T01:57:33;12.80;99.90
51500;DHT22;39101;53.478;6.158;2022-10-04T02:00:10;12.80;99.90
51500;DHT22;39101;53.478;6.158;2022-10-04T02:03:08;12.80;99.90
51500;DHT22;39101;53.478;6.158;2022-10-04T02:05:39;12.70;99.90
51500;DHT22;39101;53.478;6.158;2022-10-04T02:08:15;12.70;99.90
51500;DHT22;39101;53.478;6.158;2022-10-04T02:10:49;12.70;99.90
51500;DHT22;39101;53.478;6.158;2022-10-04T02:13:20;12.80;99.90
51500;DHT22;39101;53.478;6.158;2022-10-04T02:15:48;12.80;99.90
51500;DHT22;39101;53.478;6.158;2022-10-04T02:18:19;12.70;99.90
51500;DHT22;39101;53.478;6.158;2022-10-04T02:20:46;12.70;99.90
51500;DHT22;39101;53.478;6.158;2022-10-04T02:23:17;12.70;99.90
51500;DHT22;39101;53.478;6.158;2022-10-04T02:25:43;12.70;99.90
51500;DHT22;39101;53.478;6.158;2022-10-04T02:28:10;12.70;99.90
51500;DHT22;39101;53.478;6.158;2022-10-04T02:30:42;12.60;99.90
51500;DHT22;39101;53.478;6.158;2022-10-04T02:33:09;12.70;99.90
51500;DHT22;39101;53.478;6.158;2022-10-04T02:35:46;12.60;99.90
51500;DHT22;39101;53.478;6.158;2022-10-04T02:38:23;12.60;99.90
51500;DHT22;39101;53.478;6.158;2022-10-04T02:41:17;12.60;99.90
51500;DHT22;39101;53.478;6.158;2022-10-04T02:43:56;12.60;99.90
51500;DHT22;39101;53.478;6.158;2022-10-04T02:47:07;12.60;99.90
51500;DHT22;39101;53.478;6.158;2022-10-04T02:49:32;12.50;99.90
51500;DHT22;39101;53.478;6.158;2022-10-04T02:52:23;12.50;99.90
51500;DHT22;39101;53.478;6.158;2022-10-04T02:55:02;12.40;99.90
51500;DHT22;39101;53.478;6.158;2022-10-04T02:57:31;12.40;99.90
51500;DHT22;39101;53.478;6.158;2022-10-04T03:02:35;12.40;99.90
51500;DHT22;39101;53.478;6.158;2022-10-04T03:05:09;12.30;99.90
51500;DHT22;39101;53.478;6.158;2022-10-04T03:07:37;12.20;99.90
51500;DHT22;39101;53.478;6.158;2022-10-04T03:10:11;12.20;99.90
51500;DHT22;39101;53.478;6.158;2022-10-04T03:12:40;12.20;99.90
51500;DHT22;39101;53.478;6.158;2022-10-04T03:15:08;12.20;99.90
51500;DHT22;39101;53.478;6.158;2022-10-04T03:17:35;12.20;99.90
51500;DHT22;39101;53.478;6.158;2022-10-04T03:20:04;12.20;99.90
51500;DHT22;39101;53.478;6.158;2022-10-04T03:22:30;12.20;99.90
51500;DHT22;39101;53.478;6.158;2022-10-04T03:25:01;12.20;99.90
51500;DHT22;39101;53.478;6.158;2022-10-04T03:27:35;12.20;99.90
51500;DHT22;39101;53.478;6.158;2022-10-04T03:30:02;12.20;99.90
51500;DHT22;39101;53.478;6.158;2022-10-04T03:32:28;12.10;99.90
51500;DHT22;39101;53.478;6.158;2022-10-04T03:35:01;12.10;99.90
51500;DHT22;39101;53.478;6.158;2022-10-04T03:37:28;12.10;99.90
51500;DHT22;39101;53.478;6.158;2022-10-04T03:39:56;12.10;99.90
51500;DHT22;39101;53.478;6.158;2022-10-04T03:42:28;12.10;99.90
51500;DHT22;39101;53.478;6.158;2022-10-04T03:45:00;12.10;99.90
51500;DHT22;39101;53.478;6.158;2022-10-04T03:47:34;12.20;99.90
51500;DHT22;39101;53.478;6.158;2022-10-04T03:50:21;12.10;99.90
51500;DHT22;39101;53.478;6.158;2022-10-04T03:52:52;12.10;99.90
51500;DHT22;39101;53.478;6.158;2022-10-04T03:55:19;12.10;99.90
51500;DHT22;39101;53.478;6.158;2022-10-04T03:57:46;12.10;99.90
51500;DHT22;39101;53.478;6.158;2022-10-04T04:00:17;12.10;99.90
51500;DHT22;39101;53.478;6.158;2022-10-04T04:03:04;12.10;99.90
51500;DHT22;39101;53.478;6.158;2022-10-04T04:05:41;12.10;99.90
51500;DHT22;39101;53.478;6.158;2022-10-04T04:10:58;12.10;99.90
51500;DHT22;39101;53.478;6.158;2022-10-04T04:16:07;12.00;99.90
51500;DHT22;39101;53.478;6.158;2022-10-04T04:18:35;12.00;99.90
51500;DHT22;39101;53.478;6.158;2022-10-04T04:21:04;12.00;99.90
51500;DHT22;39101;53.478;6.158;2022-10-04T04:23:43;12.00;99.90
51500;DHT22;39101;53.478;6.158;2022-10-04T04:26:22;12.00;99.90
51500;DHT22;39101;53.478;6.158;2022-10-04T04:28:55;12.00;99.90
51500;DHT22;39101;53.478;6.158;2022-10-04T04:31:52;12.00;99.90
51500;DHT22;39101;53.478;6.158;2022-10-04T04:34:24;11.90;99.90
51500;DHT22;39101;53.478;6.158;2022-10-04T04:37:04;11.90;99.90
51500;DHT22;39101;53.478;6.158;2022-10-04T04:39:31;11.90;99.90
51500;DHT22;39101;53.478;6.158;2022-10-04T04:44:37;11.80;99.90
51500;DHT22;39101;53.478;6.158;2022-10-04T04:47:08;11.80;99.90
51500;DHT22;39101;53.478;6.158;2022-10-04T04:49:44;11.80;99.90
51500;DHT22;39101;53.478;6.158;2022-10-04T04:52:15;11.70;99.90
51500;DHT22;39101;53.478;6.158;2022-10-04T04:54:42;11.70;99.90
51500;DHT22;39101;53.478;6.158;2022-10-04T04:57:19;11.70;99.90
51500;DHT22;39101;53.478;6.158;2022-10-04T04:59:51;11.70;99.90
51500;DHT22;39101;53.478;6.158;2022-10-04T05:02:36;11.70;99.90
51500;DHT22;39101;53.478;6.158;2022-10-04T05:05:26;11.70;99.90
51500;DHT22;39101;53.478;6.158;2022-10-04T05:13:16;11.60;99.90
51500;DHT22;39101;53.478;6.158;2022-10-04T05:15:46;11.70;99.90
51500;DHT22;39101;53.478;6.158;2022-10-04T05:20:50;11.60;99.90
51500;DHT22;39101;53.478;6.158;2022-10-04T05:23:17;11.60;99.90
51500;DHT22;39101;53.478;6.158;2022-10-04T05:25:45;11.50;99.90
51500;DHT22;39101;53.478;6.158;2022-10-04T05:28:12;11.60;99.90
51500;DHT22;39101;53.478;6.158;2022-10-04T05:31:22;11.50;99.90
51500;DHT22;39101;53.478;6.158;2022-10-04T05:33:56;11.50;99.90
51500;DHT22;39101;53.478;6.158;2022-10-04T05:44:28;11.40;99.90
51500;DHT22;39101;53.478;6.158;2022-10-04T05:47:04;11.50;99.90
51500;DHT22;39101;53.478;6.158;2022-10-04T05:49:41;11.40;99.90
51500;DHT22;39101;53.478;6.158;2022-10-04T05:52:28;11.40;99.90
51500;DHT22;39101;53.478;6.158;2022-10-04T05:55:26;11.40;99.90
51500;DHT22;39101;53.478;6.158;2022-10-04T06:06:26;11.40;99.90
51500;DHT22;39101;53.478;6.158;2022-10-04T06:18:23;11.40;99.90
51500;DHT22;39101;53.478;6.158;2022-10-04T06:21:18;11.40;99.90
51500;DHT22;39101;53.478;6.158;2022-10-04T06:24:05;11.40;99.90
51500;DHT22;39101;53.478;6.158;2022-10-04T06:26:56;11.40;99.90
51500;DHT22;39101;53.478;6.158;2022-10-04T06:29:29;11.50;99.90
51500;DHT22;39101;53.478;6.158;2022-10-04T06:40:30;11.60;99.90
51500;DHT22;39101;53.478;6.158;2022-10-04T06:43:26;11.70;99.90
51500;DHT22;39101;53.478;6.158;2022-10-04T06:54:33;11.70;99.90
51500;DHT22;39101;53.478;6.158;2022-10-04T06:57:08;11.80;99.90
51500;DHT22;39101;53.478;6.158;2022-10-04T07:05:20;11.80;99.90
51500;DHT22;39101;53.478;6.158;2022-10-04T07:08:11;11.80;99.90
51500;DHT22;39101;53.478;6.158;2022-10-04T07:22:09;12.30;99.90
51500;DHT22;39101;53.478;6.158;2022-10-04T07:27:32;12.30;99.90
51500;DHT22;39101;53.478;6.158;2022-10-04T07:30:05;12.30;99.90
51500;DHT22;39101;53.478;6.158;2022-10-04T07:32:35;12.30;99.90
51500;DHT22;39101;53.478;6.158;2022-10-04T07:40:31;12.30;99.90
51500;DHT22;39101;53.478;6.158;2022-10-04T07:43:11;12.30;99.90
51500;DHT22;39101;53.478;6.158;2022-10-04T07:45:40;12.30;99.90
51500;DHT22;39101;53.478;6.158;2022-10-04T07:48:13;12.20;99.90
51500;DHT22;39101;53.478;6.158;2022-10-04T07:56:26;12.20;99.90
51500;DHT22;39101;53.478;6.158;2022-10-04T08:11:29;12.50;99.90
51500;DHT22;39101;53.478;6.158;2022-10-04T08:16:46;12.80;99.90
51500;DHT22;39101;53.478;6.158;2022-10-04T08:19:43;12.80;99.90
51500;DHT22;39101;53.478;6.158;2022-10-04T08:22:31;13.00;99.90
51500;DHT22;39101;53.478;6.158;2022-10-04T08:25:17;13.10;99.90
51500;DHT22;39101;53.478;6.158;2022-10-04T08:28:08;13.20;99.90
51500;DHT22;39101;53.478;6.158;2022-10-04T08:34:06;13.30;99.90
51500;DHT22;39101;53.478;6.158;2022-10-04T08:36:50;13.40;99.90
51500;DHT22;39101;53.478;6.158;2022-10-04T08:39:49;13.40;99.90
51500;DHT22;39101;53.478;6.158;2022-10-04T08:43:30;13.50;99.90
51500;DHT22;39101;53.478;6.158;2022-10-04T09:30:19;14.40;99.90
51500;DHT22;39101;53.478;6.158;2022-10-04T09:36:14;14.50;99.90
51500;DHT22;39101;53.478;6.158;2022-10-04T09:39:02;14.50;99.90
51500;DHT22;39101;53.478;6.158;2022-10-04T09:44:59;14.60;99.90
51500;DHT22;39101;53.478;6.158;2022-10-04T10:01:31;14.90;99.90
51500;DHT22;39101;53.478;6.158;2022-10-04T10:09:32;15.20;99.90
51500;DHT22;39101;53.478;6.158;2022-10-04T10:19:02;15.20;99.90
51500;DHT22;39101;53.478;6.158;2022-10-04T10:21:34;15.20;99.90
51500;DHT22;39101;53.478;6.158;2022-10-04T10:40:53;15.50;99.90
51500;DHT22;39101;53.478;6.158;2022-10-04T11:00:22;15.40;99.90
51500;DHT22;39101;53.478;6.158;2022-10-04T11:03:18;15.40;99.90
51500;DHT22;39101;53.478;6.158;2022-10-04T11:12:17;15.40;99.90
51500;DHT22;39101;53.478;6.158;2022-10-04T11:21:39;15.60;99.90
51500;DHT22;39101;53.478;6.158;2022-10-04T11:32:15;15.60;99.90
51500;DHT22;39101;53.478;6.158;2022-10-04T11:37:58;15.60;99.90
51500;DHT22;39101;53.478;6.158;2022-10-04T11:59:44;16.00;99.90
51500;DHT22;39101;53.478;6.158;2022-10-04T12:03:18;15.90;99.90
51500;DHT22;39101;53.478;6.158;2022-10-04T12:16:41;15.80;99.90
51500;DHT22;39101;53.478;6.158;2022-10-04T12:19:35;15.90;99.90
51500;DHT22;39101;53.478;6.158;2022-10-04T12:22:57;15.90;99.90
51500;DHT22;39101;53.478;6.158;2022-10-04T12:28:11;16.00;99.90
51500;DHT22;39101;53.478;6.158;2022-10-04T12:39:25;16.10;99.90
51500;DHT22;39101;53.478;6.158;2022-10-04T12:48:11;16.00;99.90
51500;DHT22;39101;53.478;6.158;2022-10-04T12:50:33;16.00;99.90
51500;DHT22;39101;53.478;6.158;2022-10-04T13:02:24;16.30;99.90
51500;DHT22;39101;53.478;6.158;2022-10-04T13:30:19;16.50;99.90
51500;DHT22;39101;53.478;6.158;2022-10-04T13:35:44;16.50;99.90
51500;DHT22;39101;53.478;6.158;2022-10-04T13:50:11;16.60;99.90
51500;DHT22;39101;53.478;6.158;2022-10-04T14:13:38;16.40;99.90
51500;DHT22;39101;53.478;6.158;2022-10-04T14:39:24;16.40;99.90
51500;DHT22;39101;53.478;6.158;2022-10-04T15:00:04;16.20;99.90
51500;DHT22;39101;53.478;6.158;2022-10-04T15:02:50;16.20;99.90
51500;DHT22;39101;53.478;6.158;2022-10-04T15:08:45;16.20;99.90
51500;DHT22;39101;53.478;6.158;2022-10-04T15:11:37;16.20;99.90
51500;DHT22;39101;53.478;6.158;2022-10-04T15:14:28;16.20;99.90
51500;DHT22;39101;53.478;6.158;2022-10-04T15:17:01;16.20;99.90
51500;DHT22;39101;53.478;6.158;2022-10-04T15:22:25;16.10;99.90
51500;DHT22;39101;53.478;6.158;2022-10-04T15:24:54;16.20;99.90
51500;DHT22;39101;53.478;6.158;2022-10-04T15:30:30;16.10;99.90
51500;DHT22;39101;53.478;6.158;2022-10-04T15:33:34;16.10;99.90
51500;DHT22;39101;53.478;6.158;2022-10-04T15:42:01;16.00;99.90
51500;DHT22;39101;53.478;6.158;2022-10-04T15:47:35;16.00;99.90
51500;DHT22;39101;53.478;6.158;2022-10-04T15:51:33;16.00;99.90
51500;DHT22;39101;53.478;6.158;2022-10-04T15:56:58;15.90;99.90
51500;DHT22;39101;53.478;6.158;2022-10-04T16:11:09;15.80;99.90
51500;DHT22;39101;53.478;6.158;2022-10-04T16:17:10;15.80;99.90
51500;DHT22;39101;53.478;6.158;2022-10-04T16:22:27;15.60;99.90
51500;DHT22;39101;53.478;6.158;2022-10-04T16:30:24;15.60;99.90
51500;DHT22;39101;53.478;6.158;2022-10-04T16:35:29;15.60;99.90
51500;DHT22;39101;53.478;6.158;2022-10-04T16:38:18;15.50;99.90
51500;DHT22;39101;53.478;6.158;2022-10-04T16:56:19;15.50;99.90
51500;DHT22;39101;53.478;6.158;2022-10-04T16:58:50;15.50;99.90
51500;DHT22;39101;53.478;6.158;2022-10-04T17:01:28;15.40;99.90
51500;DHT22;39101;53.478;6.158;2022-10-04T17:06:46;15.40;99.90
51500;DHT22;39101;53.478;6.158;2022-10-04T17:12:23;15.30;99.90
51500;DHT22;39101;53.478;6.158;2022-10-04T17:17:43;15.30;99.90
51500;DHT22;39101;53.478;6.158;2022-10-04T17:34:35;15.30;99.90
51500;DHT22;39101;53.478;6.158;2022-10-04T17:37:33;15.20;99.90
51500;DHT22;39101;53.478;6.158;2022-10-04T17:43:06;15.20;99.90
51500;DHT22;39101;53.478;6.158;2022-10-04T17:48:26;15.20;99.90
51500;DHT22;39101;53.478;6.158;2022-10-04T17:54:23;15.10;99.90
51500;DHT22;39101;53.478;6.158;2022-10-04T17:59:48;15.10;99.90
51500;DHT22;39101;53.478;6.158;2022-10-04T18:02:26;15.20;99.90
51500;DHT22;39101;53.478;6.158;2022-10-04T18:05:00;15.20;99.90
51500;DHT22;39101;53.478;6.158;2022-10-04T18:07:40;15.20;99.90
51500;DHT22;39101;53.478;6.158;2022-10-04T18:10:32;15.20;99.90
51500;DHT22;39101;53.478;6.158;2022-10-04T18:19:39;15.20;99.90
51500;DHT22;39101;53.478;6.158;2022-10-04T18:22:18;15.10;99.90
51500;DHT22;39101;53.478;6.158;2022-10-04T18:25:09;15.20;99.90
51500;DHT22;39101;53.478;6.158;2022-10-04T18:30:15;15.20;99.90
51500;DHT22;39101;53.478;6.158;2022-10-04T18:32:51;15.20;99.90
51500;DHT22;39101;53.478;6.158;2022-10-04T18:35:27;15.20;99.90
51500;DHT22;39101;53.478;6.158;2022-10-04T18:38:21;15.20;99.90
51500;DHT22;39101;53.478;6.158;2022-10-04T18:41:00;15.20;99.90
51500;DHT22;39101;53.478;6.158;2022-10-04T18:46:38;15.10;99.90
51500;DHT22;39101;53.478;6.158;2022-10-04T18:49:22;15.10;99.90
51500;DHT22;39101;53.478;6.158;2022-10-04T18:54:52;15.10;99.90
51500;DHT22;39101;53.478;6.158;2022-10-04T18:57:44;15.10;99.90
51500;DHT22;39101;53.478;6.158;2022-10-04T19:00:39;15.10;99.90
51500;DHT22;39101;53.478;6.158;2022-10-04T19:03:44;15.10;99.90
51500;DHT22;39101;53.478;6.158;2022-10-04T19:15:02;15.20;99.90
51500;DHT22;39101;53.478;6.158;2022-10-04T19:25:46;15.30;99.90
51500;DHT22;39101;53.478;6.158;2022-10-04T19:28:29;15.20;99.90
51500;DHT22;39101;53.478;6.158;2022-10-04T19:34:10;15.20;99.90
51500;DHT22;39101;53.478;6.158;2022-10-04T19:36:59;15.20;99.90
51500;DHT22;39101;53.478;6.158;2022-10-04T19:42:18;15.30;99.90
51500;DHT22;39101;53.478;6.158;2022-10-04T19:47:59;15.20;99.90
51500;DHT22;39101;53.478;6.158;2022-10-04T19:50:38;15.30;99.90
51500;DHT22;39101;53.478;6.158;2022-10-04T19:53:20;15.30;99.90
51500;DHT22;39101;53.478;6.158;2022-10-04T19:55:58;15.30;99.90
51500;DHT22;39101;53.478;6.158;2022-10-04T20:01:17;15.30;99.90
51500;DHT22;39101;53.478;6.158;2022-10-04T20:03:45;15.30;99.90
51500;DHT22;39101;53.478;6.158;2022-10-04T20:06:32;15.30;99.90
51500;DHT22;39101;53.478;6.158;2022-10-04T20:11:50;15.30;99.90
51500;DHT22;39101;53.478;6.158;2022-10-04T20:19:37;15.30;99.90
51500;DHT22;39101;53.478;6.158;2022-10-04T20:34:59;15.40;99.90
51500;DHT22;39101;53.478;6.158;2022-10-04T20:45:43;15.40;99.90
51500;DHT22;39101;53.478;6.158;2022-10-04T20:48:11;15.40;99.90
51500;DHT22;39101;53.478;6.158;2022-10-04T20:50:40;15.40;99.90
51500;DHT22;39101;53.478;6.158;2022-10-04T20:53:28;15.40;99.90
51500;DHT22;39101;53.478;6.158;2022-10-04T20:58:38;15.40;99.90
51500;DHT22;39101;53.478;6.158;2022-10-04T21:01:40;15.40;99.90
51500;DHT22;39101;53.478;6.158;2022-10-04T21:07:21;15.40;99.90
51500;DHT22;39101;53.478;6.158;2022-10-04T21:10:19;15.30;99.90
51500;DHT22;39101;53.478;6.158;2022-10-04T21:12:47;15.40;99.90
51500;DHT22;39101;53.478;6.158;2022-10-04T21:15:20;15.30;99.90
51500;DHT22;39101;53.478;6.158;2022-10-04T21:18:08;15.40;99.90
51500;DHT22;39101;53.478;6.158;2022-10-04T21:20:50;15.40;99.90
51500;DHT22;39101;53.478;6.158;2022-10-04T21:23:39;15.40;99.90
51500;DHT22;39101;53.478;6.158;2022-10-04T21:26:23;15.30;99.90
51500;DHT22;39101;53.478;6.158;2022-10-04T21:28:54;15.30;99.90
51500;DHT22;39101;53.478;6.158;2022-10-04T21:31:21;15.30;99.90
51500;DHT22;39101;53.478;6.158;2022-10-04T21:33:47;15.30;99.90
51500;DHT22;39101;53.478;6.158;2022-10-04T21:36:14;15.30;99.90
51500;DHT22;39101;53.478;6.158;2022-10-04T21:38:39;15.20;99.90
51500;DHT22;39101;53.478;6.158;2022-10-04T21:41:05;15.20;99.90
51500;DHT22;39101;53.478;6.158;2022-10-04T21:43:31;15.30;99.90
51500;DHT22;39101;53.478;6.158;2022-10-04T21:45:57;15.30;99.90
51500;DHT22;39101;53.478;6.158;2022-10-04T21:48:23;15.20;99.90
51500;DHT22;39101;53.478;6.158;2022-10-04T21:50:50;15.20;99.90
51500;DHT22;39101;53.478;6.158;2022-10-04T21:53:16;15.30;99.90
51500;DHT22;39101;53.478;6.158;2022-10-04T21:55:41;15.20;99.90
51500;DHT22;39101;53.478;6.158;2022-10-04T21:58:07;15.20;99.90
51500;DHT22;39101;53.478;6.158;2022-10-04T22:00:33;15.20;99.90
51500;DHT22;39101;53.478;6.158;2022-10-04T22:02:59;15.20;99.90
51500;DHT22;39101;53.478;6.158;2022-10-04T22:05:25;15.20;99.90
51500;DHT22;39101;53.478;6.158;2022-10-04T22:07:51;15.20;99.90
51500;DHT22;39101;53.478;6.158;2022-10-04T22:10:20;15.20;99.90
51500;DHT22;39101;53.478;6.158;2022-10-04T22:12:46;15.30;99.90
51500;DHT22;39101;53.478;6.158;2022-10-04T22:15:12;15.20;99.90
51500;DHT22;39101;53.478;6.158;2022-10-04T22:17:41;15.30;99.90
51500;DHT22;39101;53.478;6.158;2022-10-04T22:20:07;15.30;99.90
51500;DHT22;39101;53.478;6.158;2022-10-04T22:22:32;15.30;99.90
51500;DHT22;39101;53.478;6.158;2022-10-04T22:24:59;15.30;99.90
51500;DHT22;39101;53.478;6.158;2022-10-04T22:27:26;15.20;99.90
51500;DHT22;39101;53.478;6.158;2022-10-04T22:32:56;15.20;99.90
51500;DHT22;39101;53.478;6.158;2022-10-04T22:35:40;15.20;99.90
51500;DHT22;39101;53.478;6.158;2022-10-04T22:38:10;15.10;99.90
51500;DHT22;39101;53.478;6.158;2022-10-04T22:40:36;15.10;99.90
51500;DHT22;39101;53.478;6.158;2022-10-04T22:43:02;15.20;99.90
51500;DHT22;39101;53.478;6.158;2022-10-04T22:45:33;15.20;99.90
51500;DHT22;39101;53.478;6.158;2022-10-04T22:48:00;15.10;99.90
51500;DHT22;39101;53.478;6.158;2022-10-04T22:50:50;15.10;99.90
51500;DHT22;39101;53.478;6.158;2022-10-04T22:53:22;15.10;99.90
51500;DHT22;39101;53.478;6.158;2022-10-04T22:55:48;15.20;99.90
51500;DHT22;39101;53.478;6.158;2022-10-04T22:58:15;15.10;99.90
51500;DHT22;39101;53.478;6.158;2022-10-04T23:00:42;15.10;99.90
51500;DHT22;39101;53.478;6.158;2022-10-04T23:03:29;15.10;99.90
51500;DHT22;39101;53.478;6.158;2022-10-04T23:05:56;15.10;99.90
51500;DHT22;39101;53.478;6.158;2022-10-04T23:08:24;15.10;99.90
51500;DHT22;39101;53.478;6.158;2022-10-04T23:10:55;15.10;99.90
51500;DHT22;39101;53.478;6.158;2022-10-04T23:13:25;15.10;99.90
51500;DHT22;39101;53.478;6.158;2022-10-04T23:15:51;15.10;99.90
51500;DHT22;39101;53.478;6.158;2022-10-04T23:18:21;15.10;99.90
51500;DHT22;39101;53.478;6.158;2022-10-04T23:20:50;15.10;99.90
51500;DHT22;39101;53.478;6.158;2022-10-04T23:23:17;15.10;99.90
51500;DHT22;39101;53.478;6.158;2022-10-04T23:25:47;15.10;99.90
51500;DHT22;39101;53.478;6.158;2022-10-04T23:28:16;15.10;99.90
51500;DHT22;39101;53.478;6.158;2022-10-04T23:31:06;15.10;99.90
51500;DHT22;39101;53.478;6.158;2022-10-04T23:33:29;15.10;99.90
51500;DHT22;39101;53.478;6.158;2022-10-04T23:35:55;15.10;99.90
51500;DHT22;39101;53.478;6.158;2022-10-04T23:38:23;15.00;99.90
51500;DHT22;39101;53.478;6.158;2022-10-04T23:40:49;15.10;99.90
51500;DHT22;39101;53.478;6.158;2022-10-04T23:43:22;15.10;99.90
51500;DHT22;39101;53.478;6.158;2022-10-04T23:45:53;15.10;99.90
51500;DHT22;39101;53.478;6.158;2022-10-04T23:48:20;15.10;99.90
51500;DHT22;39101;53.478;6.158;2022-10-04T23:50:47;15.10;99.90
51500;DHT22;39101;53.478;6.158;2022-10-04T23:53:29;15.00;99.90
51500;DHT22;39101;53.478;6.158;2022-10-04T23:56:00;15.00;99.90
51500;DHT22;39101;53.478;6.158;2022-10-04T23:58:33;15.00;99.90
